Time;durP1;ratioP1;P1;durP2;ratioP2;P2;SDS_P1;SDS_P2;PMS_P1;PMS_P2;Temp;Humidity;BMP_temperature;BMP_pressure;BME280_temperature;BME280_humidity;BME280_pressure;Samples;Min_cycle;Max_cycle;Signal;HPM_P1;HPM_P2
2021/06/01 00:01:31;;;;;;;5.70;4.10;;;12.10;99.90;;;;;;5028025;28;20406;-45
2021/06/01 00:03:57;;;;;;;4.47;3.58;;;12.10;99.90;;;;;;5028213;28;20021;-45
2021/06/01 00:06:22;;;;;;;5.15;3.90;;;12.10;99.90;;;;;;5028434;28;20429;-45
2021/06/01 00:08:48;;;;;;;5.35;3.78;;;12.00;99.90;;;;;;5028017;28;20029;-44
2021/06/01 00:11:14;;;;;;;6.25;3.70;;;12.00;99.90;;;;;;5028425;28;20021;-45
2021/06/01 00:13:41;;;;;;;6.35;4.03;;;12.00;99.90;;;;;;5028310;28;20026;-46
2021/06/01 00:16:07;;;;;;;6.35;4.13;;;12.00;99.90;;;;;;5027867;28;20022;-45
2021/06/01 00:18:33;;;;;;;5.10;3.95;;;11.90;99.90;;;;;;5027546;28;20415;-45
2021/06/01 00:20:59;;;;;;;5.22;3.83;;;11.80;99.90;;;;;;5027901;28;20056;-44
2021/06/01 00:23:25;;;;;;;6.72;4.03;;;11.80;99.90;;;;;;5027950;28;20033;-45
2021/06/01 00:25:51;;;;;;;5.18;4.03;;;11.70;99.90;;;;;;5010112;28;20017;-45
2021/06/01 00:28:17;;;;;;;6.10;4.35;;;11.70;99.90;;;;;;5009575;28;20029;-46
2021/06/01 00:30:43;;;;;;;5.28;4.18;;;11.60;99.90;;;;;;5030010;28;20029;-45
2021/06/01 00:33:09;;;;;;;6.07;3.95;;;11.60;99.90;;;;;;5031331;28;20570;-48
2021/06/01 00:35:35;;;;;;;6.15;4.43;;;11.50;99.90;;;;;;5031637;28;20037;-45
2021/06/01 00:38:05;;;;;;;6.70;4.85;;;11.50;99.90;;;;;;5031060;28;20472;-45
2021/06/01 00:40:31;;;;;;;6.43;4.30;;;11.50;99.90;;;;;;5031223;28;20051;-45
2021/06/01 00:42:58;;;;;;;6.50;4.63;;;11.50;99.90;;;;;;5030935;28;20071;-45
2021/06/01 00:45:25;;;;;;;10.05;4.78;;;11.50;99.90;;;;;;5030901;28;20576;-45
2021/06/01 00:47:51;;;;;;;5.82;4.28;;;11.50;99.90;;;;;;5030443;28;20021;-44
2021/06/01 00:50:19;;;;;;;5.72;4.00;;;11.40;99.90;;;;;;5031080;28;20541;-45
2021/06/01 00:52:45;;;;;;;5.68;4.65;;;11.40;99.90;;;;;;5030949;28;20037;-46
2021/06/01 00:55:11;;;;;;;5.25;4.22;;;11.40;99.90;;;;;;5030680;28;20446;-48
2021/06/01 00:57:36;;;;;;;6.45;4.95;;;11.40;99.90;;;;;;5030488;28;20116;-45
2021/06/01 01:00:06;;;;;;;6.00;4.60;;;11.40;99.90;;;;;;5030769;28;20025;-47
2021/06/01 01:02:31;;;;;;;7.57;4.68;;;11.50;99.90;;;;;;5031056;28;20475;-46
2021/06/01 01:04:57;;;;;;;7.13;4.43;;;11.40;99.90;;;;;;5013156;28;20116;-46
2021/06/01 01:07:45;;;;;;;5.85;4.18;;;11.40;99.90;;;;;;5030255;28;20033;-44
2021/06/01 01:10:15;;;;;;;6.45;4.10;;;11.40;99.90;;;;;;5030624;28;20108;-45
2021/06/01 01:12:46;;;;;;;6.30;4.63;;;11.40;99.90;;;;;;5030549;28;20025;-45
2021/06/01 01:15:13;;;;;;;5.60;4.30;;;11.40;99.90;;;;;;5030270;28;20034;-46
2021/06/01 01:17:51;;;;;;;5.53;3.60;;;11.40;99.90;;;;;;5029684;28;20327;-45
2021/06/01 01:20:28;;;;;;;5.40;4.25;;;11.30;99.90;;;;;;5030025;28;20075;-45
2021/06/01 01:22:57;;;;;;;5.18;4.22;;;11.20;99.90;;;;;;5030256;28;20032;-45
2021/06/01 01:25:56;;;;;;;7.40;4.68;;;11.20;99.90;;;;;;5030114;28;20029;-45
2021/06/01 01:28:59;;;;;;;7.93;5.10;;;11.10;99.90;;;;;;5000852;28;20178;-44
2021/06/01 01:31:32;;;;;;;6.70;4.85;;;11.10;99.90;;;;;;5030200;28;20033;-46
2021/06/01 01:33:59;;;;;;;6.53;4.57;;;11.10;99.90;;;;;;5030152;28;20026;-47
2021/06/01 01:36:26;;;;;;;7.05;5.00;;;11.10;99.90;;;;;;5012376;28;20525;-45
2021/06/01 01:38:52;;;;;;;7.03;4.72;;;11.00;99.90;;;;;;5011883;28;20072;-44
2021/06/01 01:41:19;;;;;;;5.55;4.50;;;11.00;99.90;;;;;;5029228;28;20049;-45
2021/06/01 01:43:51;;;;;;;7.18;5.40;;;10.90;99.90;;;;;;5029845;28;20037;-45
2021/06/01 01:46:31;;;;;;;8.68;5.50;;;10.90;99.90;;;;;;5029904;28;20426;-45
2021/06/01 01:49:01;;;;;;;8.18;5.60;;;10.90;99.90;;;;;;5029222;28;20104;-45
2021/06/01 01:51:35;;;;;;;12.70;6.65;;;10.90;99.90;;;;;;5029526;28;20101;-45
2021/06/01 01:54:07;;;;;;;9.55;5.63;;;10.90;99.90;;;;;;5029627;28;20036;-45
2021/06/01 01:56:40;;;;;;;10.63;6.68;;;10.90;99.90;;;;;;5029618;28;20232;-45
2021/06/01 01:59:08;;;;;;;9.13;5.40;;;10.90;99.90;;;;;;5012002;28;20028;-44
2021/06/01 02:01:35;;;;;;;7.60;4.78;;;10.90;99.90;;;;;;5029483;28;20075;-43
2021/06/01 02:04:02;;;;;;;9.57;5.63;;;10.90;99.90;;;;;;5029523;28;20146;-46
2021/06/01 02:06:29;;;;;;;6.90;5.32;;;10.80;99.90;;;;;;5029427;28;20018;-46
2021/06/01 02:08:54;;;;;;;6.78;4.90;;;10.70;99.90;;;;;;5028963;28;20372;-46
2021/06/01 02:11:21;;;;;;;7.05;5.00;;;10.70;99.90;;;;;;5011511;28;20272;-44
2021/06/01 02:13:51;;;;;;;7.43;5.65;;;10.70;99.90;;;;;;5028969;28;20029;-44
2021/06/01 02:16:17;;;;;;;8.43;6.23;;;10.60;99.90;;;;;;5028937;28;20021;-44
2021/06/01 02:18:44;;;;;;;10.25;5.90;;;10.60;99.90;;;;;;5028645;28;20083;-44
2021/06/01 02:21:22;;;;;;;11.45;6.32;;;10.60;99.90;;;;;;5010707;28;20031;-46
2021/06/01 02:23:57;;;;;;;7.93;5.80;;;10.70;99.90;;;;;;5017807;28;20427;-45
2021/06/01 02:26:33;;;;;;;10.98;6.25;;;10.70;99.90;;;;;;5018516;28;20104;-45
2021/06/01 02:29:05;;;;;;;10.52;5.45;;;10.60;99.90;;;;;;5019067;28;20449;-47
2021/06/01 02:31:38;;;;;;;8.25;6.20;;;10.60;99.90;;;;;;5009760;28;20036;-45
2021/06/01 02:34:07;;;;;;;10.32;5.63;;;10.60;99.90;;;;;;5018532;28;20057;-46
2021/06/01 02:36:35;;;;;;;11.25;6.32;;;10.60;99.90;;;;;;5019527;28;20087;-46
2021/06/01 02:39:01;;;;;;;11.82;6.20;;;10.60;99.90;;;;;;5018360;28;20014;-47
2021/06/01 02:41:27;;;;;;;9.40;6.28;;;10.60;99.90;;;;;;5007438;28;20080;-46
2021/06/01 02:43:54;;;;;;;6.18;5.55;;;10.60;99.90;;;;;;5019739;28;20037;-47
2021/06/01 02:46:20;;;;;;;7.22;5.72;;;10.50;99.90;;;;;;5024104;28;20036;-45
2021/06/01 02:48:46;;;;;;;6.72;5.82;;;10.50;99.90;;;;;;5028087;28;20399;-46
2021/06/01 02:51:16;;;;;;;6.68;5.53;;;10.40;99.90;;;;;;5026467;28;20021;-45
2021/06/01 02:54:04;;;;;;;9.82;5.10;;;10.30;99.90;;;;;;5026855;28;20067;-46
2021/06/01 02:56:30;;;;;;;7.40;5.47;;;10.30;99.90;;;;;;5025742;28;20250;-45
2021/06/01 02:58:57;;;;;;;8.38;5.65;;;10.30;99.90;;;;;;5026917;28;20055;-45
2021/06/01 03:01:25;;;;;;;9.27;7.30;;;10.20;99.90;;;;;;5025226;28;20357;-45
2021/06/01 03:03:54;;;;;;;12.48;8.18;;;10.20;99.90;;;;;;5027259;28;20017;-44
2021/06/01 03:06:21;;;;;;;10.85;7.93;;;10.30;99.90;;;;;;5027296;28;20030;-45
2021/06/01 03:08:48;;;;;;;12.45;7.60;;;10.30;99.90;;;;;;5026649;28;20077;-45
2021/06/01 03:11:16;;;;;;;11.80;7.38;;;10.30;99.90;;;;;;5027507;28;20228;-45
2021/06/01 03:13:43;;;;;;;13.30;7.63;;;10.40;99.90;;;;;;5028183;28;20022;-45
2021/06/01 03:16:08;;;;;;;10.13;7.55;;;10.30;99.90;;;;;;5028616;28;20037;-47
2021/06/01 03:18:34;;;;;;;12.02;7.03;;;10.40;99.90;;;;;;5010213;28;20037;-47
2021/06/01 03:20:59;;;;;;;9.98;7.18;;;10.30;99.90;;;;;;5028503;28;20041;-45
2021/06/01 03:23:26;;;;;;;10.25;6.65;;;10.30;99.90;;;;;;5016433;28;20026;-45
2021/06/01 03:25:52;;;;;;;9.35;6.97;;;10.40;99.90;;;;;;5008909;28;20029;-45
2021/06/01 03:28:20;;;;;;;10.95;7.65;;;10.40;99.90;;;;;;5008008;28;20026;-44
2021/06/01 03:30:47;;;;;;;10.38;6.40;;;10.40;99.90;;;;;;5008920;28;20022;-44
2021/06/01 03:33:13;;;;;;;8.38;6.60;;;10.40;99.90;;;;;;5011100;28;20037;-45
2021/06/01 03:35:39;;;;;;;10.98;6.30;;;10.40;99.90;;;;;;5013855;28;20033;-45
2021/06/01 03:38:04;;;;;;;8.32;6.57;;;10.40;99.90;;;;;;5008011;28;20181;-44
2021/06/01 03:40:30;;;;;;;13.05;7.50;;;10.30;99.90;;;;;;5008576;28;20030;-46
2021/06/01 03:42:56;;;;;;;8.10;6.35;;;10.30;99.90;;;;;;5008558;28;20495;-48
2021/06/01 03:45:23;;;;;;;11.05;6.65;;;10.30;99.90;;;;;;5008588;28;20104;-48
2021/06/01 03:47:49;;;;;;;8.63;6.32;;;10.20;99.90;;;;;;5008253;28;20029;-45
2021/06/01 03:50:15;;;;;;;9.43;7.00;;;10.20;99.90;;;;;;5008482;28;20030;-45
2021/06/01 03:52:40;;;;;;;8.77;6.82;;;10.20;99.90;;;;;;5008423;28;20261;-45
2021/06/01 03:55:07;;;;;;;8.02;6.45;;;10.20;99.90;;;;;;5008469;28;20443;-45
2021/06/01 03:57:32;;;;;;;10.52;6.65;;;10.20;99.90;;;;;;5007786;28;20128;-45
2021/06/01 03:59:58;;;;;;;11.35;7.15;;;10.20;99.90;;;;;;5008501;28;20061;-45
2021/06/01 04:02:24;;;;;;;8.98;6.93;;;10.20;99.90;;;;;;5025861;28;20026;-44
2021/06/01 04:04:50;;;;;;;10.32;6.53;;;10.20;99.90;;;;;;5013043;28;20021;-45
2021/06/01 04:07:16;;;;;;;10.80;7.68;;;10.30;99.90;;;;;;5031828;28;20033;-47
2021/06/01 04:09:42;;;;;;;9.90;6.95;;;10.30;99.90;;;;;;5031635;28;20044;-45
2021/06/01 04:12:09;;;;;;;12.02;8.00;;;10.40;99.90;;;;;;5032192;28;20032;-45
2021/06/01 04:14:35;;;;;;;13.32;8.18;;;10.40;99.90;;;;;;5031816;28;20026;-45
2021/06/01 04:17:00;;;;;;;11.70;8.15;;;10.50;99.90;;;;;;5031448;28;20079;-45
2021/06/01 04:19:26;;;;;;;10.23;7.63;;;10.50;99.90;;;;;;5030836;28;20044;-46
2021/06/01 04:21:52;;;;;;;14.60;8.63;;;10.60;99.90;;;;;;5031416;28;20021;-44
2021/06/01 04:24:19;;;;;;;14.63;8.20;;;10.60;99.90;;;;;;5031409;28;20021;-44
2021/06/01 04:26:45;;;;;;;13.23;7.72;;;10.70;99.90;;;;;;5031534;28;20218;-44
2021/06/01 04:29:10;;;;;;;10.48;7.63;;;10.70;99.90;;;;;;5012790;28;20419;-45
2021/06/01 04:31:38;;;;;;;13.75;8.15;;;10.80;99.90;;;;;;5031508;28;20034;-44
2021/06/01 04:34:04;;;;;;;11.20;8.10;;;10.80;99.90;;;;;;5031181;28;20028;-44
2021/06/01 04:36:29;;;;;;;10.75;6.85;;;10.90;99.90;;;;;;5008121;28;20033;-45
2021/06/01 04:38:55;;;;;;;8.23;6.82;;;11.00;99.90;;;;;;5018514;28;20022;-44
2021/06/01 04:41:22;;;;;;;10.15;7.10;;;11.00;99.90;;;;;;5023106;28;20079;-45
2021/06/01 04:43:47;;;;;;;11.30;7.82;;;11.10;99.90;;;;;;5019807;28;20026;-45
2021/06/01 04:46:13;;;;;;;10.45;7.63;;;11.20;99.90;;;;;;5020565;28;20024;-47
2021/06/01 04:48:39;;;;;;;11.35;7.65;;;11.20;99.90;;;;;;5012400;28;20032;-46
2021/06/01 04:51:05;;;;;;;8.23;7.00;;;11.30;99.90;;;;;;5021442;28;20104;-45
2021/06/01 04:53:30;;;;;;;11.40;7.60;;;11.40;99.90;;;;;;5028509;28;20096;-45
2021/06/01 04:55:56;;;;;;;12.13;7.45;;;11.50;99.90;;;;;;5030962;28;20038;-45
2021/06/01 04:58:21;;;;;;;10.20;7.00;;;11.50;99.90;;;;;;5029910;28;20475;-44
2021/06/01 05:00:47;;;;;;;13.90;7.93;;;11.60;99.90;;;;;;5026221;28;20037;-44
2021/06/01 05:03:13;;;;;;;12.43;7.70;;;11.70;99.90;;;;;;5013073;28;20026;-44
2021/06/01 05:05:38;;;;;;;11.20;7.55;;;11.80;99.90;;;;;;5011436;28;20026;-46
2021/06/01 05:08:04;;;;;;;10.75;7.10;;;11.90;99.90;;;;;;5010251;28;20033;-45
2021/06/01 05:10:29;;;;;;;10.20;7.25;;;11.90;99.90;;;;;;5010834;28;20026;-45
2021/06/01 05:12:55;;;;;;;10.73;7.40;;;12.00;99.90;;;;;;5010801;28;20137;-46
2021/06/01 05:15:20;;;;;;;14.13;7.13;;;12.10;99.90;;;;;;5022791;28;20108;-45
2021/06/01 05:17:47;;;;;;;11.05;7.75;;;12.20;99.90;;;;;;5028362;28;20034;-47
2021/06/01 05:20:13;;;;;;;14.90;8.88;;;12.30;99.90;;;;;;5035724;28;20421;-44
2021/06/01 05:22:38;;;;;;;12.32;8.20;;;12.40;99.90;;;;;;5028419;28;20030;-45
2021/06/01 05:25:05;;;;;;;10.75;7.97;;;12.50;99.90;;;;;;5034792;28;20540;-45
2021/06/01 05:27:30;;;;;;;11.25;7.53;;;12.60;99.90;;;;;;5031959;28;20029;-46
2021/06/01 05:30:02;;;;;;;9.90;7.10;;;12.60;99.90;;;;;;5032182;28;20490;-45
2021/06/01 05:35:19;;;;;;;;;;;12.80;99.90;;;;;;5030892;28;20436;-45
2021/06/01 05:37:45;;;;;;;10.30;7.70;;;12.90;99.90;;;;;;5025622;28;19913;-45
2021/06/01 05:40:13;;;;;;;12.27;8.32;;;12.90;99.90;;;;;;5031916;28;20021;-48
2021/06/01 05:42:38;;;;;;;12.95;8.77;;;13.00;99.90;;;;;;5031856;28;20064;-45
2021/06/01 05:45:05;;;;;;;10.63;8.02;;;13.10;99.90;;;;;;5034050;28;20490;-45
2021/06/01 05:47:30;;;;;;;12.95;9.27;;;13.10;99.90;;;;;;5031174;28;20479;-47
2021/06/01 05:49:56;;;;;;;13.73;9.13;;;13.20;99.90;;;;;;5010906;28;20036;-45
2021/06/01 05:52:21;;;;;;;13.73;8.07;;;13.20;99.90;;;;;;5031363;28;20503;-46
2021/06/01 05:54:47;;;;;;;15.90;10.07;;;13.30;99.90;;;;;;5015007;28;20049;-45
2021/06/01 05:57:13;;;;;;;13.50;8.88;;;13.40;99.90;;;;;;5015121;28;20036;-45
2021/06/01 05:59:38;;;;;;;11.98;8.77;;;13.50;99.90;;;;;;5028452;28;20037;-45
2021/06/01 06:02:04;;;;;;;14.52;9.15;;;13.50;99.90;;;;;;5031514;28;20029;-45
2021/06/01 06:04:29;;;;;;;15.70;9.98;;;13.60;99.90;;;;;;5027096;28;20034;-45
2021/06/01 06:06:55;;;;;;;12.40;9.00;;;13.70;99.90;;;;;;5016607;28;20060;-46
2021/06/01 06:09:20;;;;;;;13.57;8.95;;;13.70;99.90;;;;;;5028806;28;20033;-45
2021/06/01 06:11:46;;;;;;;15.70;8.95;;;13.80;99.90;;;;;;5031196;28;20033;-44
2021/06/01 06:14:11;;;;;;;15.02;10.40;;;13.90;99.90;;;;;;5031292;28;20017;-45
2021/06/01 06:16:46;;;;;;;16.77;9.23;;;14.00;99.90;;;;;;5031426;28;20022;-45
2021/06/01 06:19:11;;;;;;;11.57;9.63;;;14.10;99.90;;;;;;5025931;28;20029;-46
2021/06/01 06:21:37;;;;;;;15.20;9.15;;;14.20;99.90;;;;;;5031221;28;20033;-45
2021/06/01 06:24:04;;;;;;;12.02;8.65;;;14.30;99.90;;;;;;5030599;28;20167;-46
2021/06/01 06:26:30;;;;;;;11.70;7.78;;;14.50;99.90;;;;;;5031078;28;20527;-45
2021/06/01 06:28:55;;;;;;;14.88;8.02;;;14.60;99.90;;;;;;5032007;28;20045;-46
2021/06/01 06:31:21;;;;;;;9.20;6.78;;;14.70;99.90;;;;;;5031459;28;20022;-45
2021/06/01 06:33:46;;;;;;;9.18;7.28;;;14.80;99.90;;;;;;5026447;28;20052;-45
2021/06/01 06:36:12;;;;;;;9.65;7.57;;;15.10;99.90;;;;;;5011909;28;20525;-45
2021/06/01 06:38:37;;;;;;;14.63;7.95;;;15.20;99.90;;;;;;5028316;28;20119;-46
2021/06/01 06:41:13;;;;;;;12.52;7.30;;;15.40;99.90;;;;;;5029040;28;20029;-45
2021/06/01 06:43:43;;;;;;;11.23;8.10;;;15.60;99.90;;;;;;5017433;28;20501;-45
2021/06/01 06:46:15;;;;;;;10.43;8.30;;;15.70;99.90;;;;;;5017551;28;20617;-47
2021/06/01 06:48:41;;;;;;;12.73;8.05;;;15.90;99.90;;;;;;5021799;28;20124;-45
2021/06/01 06:51:12;;;;;;;10.52;7.70;;;16.10;99.90;;;;;;5028291;28;20679;-44
2021/06/01 06:53:48;;;;;;;14.23;7.97;;;16.20;99.90;;;;;;5028225;28;20033;-46
2021/06/01 06:56:13;;;;;;;9.70;7.78;;;16.40;99.90;;;;;;5028222;28;20025;-47
2021/06/01 06:58:39;;;;;;;12.50;8.05;;;16.50;99.90;;;;;;5028751;28;20029;-45
2021/06/01 07:01:08;;;;;;;12.07;8.38;;;16.50;99.90;;;;;;5029245;28;20035;-45
2021/06/01 07:03:33;;;;;;;14.60;8.10;;;16.70;99.90;;;;;;5028961;28;20471;-47
2021/06/01 07:05:59;;;;;;;11.88;7.47;;;16.80;99.90;;;;;;5029484;28;20034;-46
2021/06/01 07:08:24;;;;;;;9.70;7.03;;;16.90;99.90;;;;;;5024501;28;20130;-46
2021/06/01 07:10:50;;;;;;;12.95;7.60;;;17.00;99.90;;;;;;5010224;28;20030;-48
2021/06/01 07:13:16;;;;;;;14.65;8.75;;;17.20;99.90;;;;;;5010246;28;20573;-45
2021/06/01 07:15:47;;;;;;;10.52;7.65;;;17.40;99.90;;;;;;5010382;28;20056;-43
2021/06/01 07:18:13;;;;;;;11.90;6.75;;;17.40;99.90;;;;;;5009591;28;20030;-46
2021/06/01 07:20:39;;;;;;;9.98;7.22;;;17.50;99.90;;;;;;5025216;28;20521;-45
2021/06/01 07:23:05;;;;;;;9.98;7.15;;;17.50;99.90;;;;;;5028429;28;20037;-48
2021/06/01 07:25:31;;;;;;;12.98;7.80;;;17.60;99.90;;;;;;5010092;28;20109;-46
2021/06/01 07:27:56;;;;;;;8.80;7.07;;;17.70;99.90;;;;;;5006424;28;20550;-45
2021/06/01 07:30:22;;;;;;;10.30;6.72;;;17.80;99.90;;;;;;5049353;28;20025;-45
2021/06/01 07:32:48;;;;;;;9.50;6.95;;;18.00;99.90;;;;;;5038947;28;20083;-45
2021/06/01 07:35:16;;;;;;;12.43;7.95;;;18.30;99.90;;;;;;5029366;28;20068;-47
2021/06/01 07:37:41;;;;;;;11.52;7.90;;;18.50;99.90;;;;;;5028575;28;20025;-45
2021/06/01 07:40:07;;;;;;;9.48;7.10;;;18.80;99.90;;;;;;5015555;28;20108;-48
2021/06/01 07:42:33;;;;;;;8.48;7.20;;;19.00;99.90;;;;;;5013620;28;20053;-46
2021/06/01 07:44:58;;;;;;;15.60;8.02;;;19.50;99.90;;;;;;4995543;28;20366;-47
2021/06/01 07:47:25;;;;;;;12.15;7.57;;;19.80;99.90;;;;;;5012584;28;20025;-45
2021/06/01 07:49:50;;;;;;;11.35;7.57;;;19.90;99.90;;;;;;5013554;28;20125;-48
2021/06/01 07:52:16;;;;;;;12.18;7.80;;;20.10;99.90;;;;;;5018973;28;20113;-47
2021/06/01 07:54:41;;;;;;;10.85;7.40;;;20.30;99.90;;;;;;5022769;28;20109;-46
2021/06/01 07:57:07;;;;;;;15.20;7.10;;;20.60;99.90;;;;;;5031358;28;20033;-49
2021/06/01 07:59:32;;;;;;;10.05;6.53;;;20.80;99.40;;;;;;5032367;28;20565;-47
2021/06/01 08:01:58;;;;;;;12.93;6.88;;;21.10;98.70;;;;;;5033161;28;20356;-46
2021/06/01 08:04:23;;;;;;;9.55;6.22;;;21.30;97.40;;;;;;5029747;28;20026;-47
2021/06/01 08:06:49;;;;;;;10.18;6.32;;;21.40;96.60;;;;;;5031966;28;20533;-46
2021/06/01 08:09:15;;;;;;;8.52;5.80;;;21.50;95.00;;;;;;5011906;28;20014;-46
2021/06/01 08:11:40;;;;;;;6.05;5.18;;;22.00;90.60;;;;;;5032395;28;20641;-46
2021/06/01 08:14:06;;;;;;;8.18;5.78;;;22.20;87.70;;;;;;5032471;28;20021;-47
2021/06/01 08:16:32;;;;;;;8.77;5.20;;;23.00;84.00;;;;;;5029324;28;20029;-48
2021/06/01 08:19:04;;;;;;;10.00;5.60;;;23.80;82.20;;;;;;5031193;28;20071;-47
2021/06/01 08:24:22;;;;;;;5.38;4.57;;;26.30;70.20;;;;;;5006931;28;20125;-46
2021/06/01 08:26:48;;;;;;;7.07;5.20;;;27.00;69.40;;;;;;5031800;28;20038;-49
2021/06/01 08:29:14;;;;;;;5.68;4.80;;;27.70;64.10;;;;;;5031038;28;20070;-49
2021/06/01 08:31:41;;;;;;;8.77;5.70;;;27.70;61.50;;;;;;5029756;28;20084;-46
2021/06/01 08:34:06;;;;;;;7.40;5.22;;;28.10;59.10;;;;;;5028828;28;20030;-48
2021/06/01 08:36:32;;;;;;;8.18;4.70;;;28.20;59.40;;;;;;5032189;28;20091;-47
2021/06/01 08:38:58;;;;;;;7.70;4.82;;;28.70;57.90;;;;;;5027893;28;20030;-47
2021/06/01 08:41:24;;;;;;;6.75;4.47;;;29.10;56.40;;;;;;5013926;28;20258;-47
2021/06/01 08:43:52;;;;;;;6.68;4.68;;;29.80;52.90;;;;;;5031567;28;20036;-48
2021/06/01 08:46:23;;;;;;;7.68;5.80;;;30.10;53.10;;;;;;5031148;28;20076;-46
2021/06/01 08:48:49;;;;;;;8.25;4.68;;;30.90;49.00;;;;;;5030645;28;20017;-46
2021/06/01 08:51:20;;;;;;;6.90;4.40;;;30.80;48.90;;;;;;5029013;28;20091;-46
2021/06/01 08:53:47;;;;;;;7.28;4.82;;;31.60;45.70;;;;;;5029224;28;20033;-46
2021/06/01 08:56:12;;;;;;;7.25;4.65;;;31.10;46.20;;;;;;5012706;28;20030;-49
2021/06/01 08:58:38;;;;;;;7.20;4.35;;;32.10;46.50;;;;;;5013144;28;20048;-47
2021/06/01 09:01:03;;;;;;;7.35;4.35;;;31.80;46.20;;;;;;5028458;28;20048;-48
2021/06/01 09:03:29;;;;;;;8.10;4.78;;;32.50;44.70;;;;;;5026918;28;20116;-46
2021/06/01 09:22:36;;;;;;;8.50;3.63;;;33.90;43.50;;;;;;5031528;28;20043;-47
2021/06/01 09:25:06;;;;;;;5.72;4.40;;;34.60;40.60;;;;;;5020952;28;20029;-48
2021/06/01 09:27:46;;;;;;;5.25;4.05;;;34.00;41.60;;;;;;5029243;28;20117;-47
2021/06/01 09:30:59;;;;;;;4.45;4.03;;;32.90;41.30;;;;;;5029824;28;20471;-50
2021/06/01 09:33:27;;;;;;;6.63;4.38;;;32.70;41.00;;;;;;5028958;28;20503;-48
2021/06/01 09:36:00;;;;;;;5.20;4.28;;;32.40;44.40;;;;;;5027094;28;20632;-46
2021/06/01 09:38:31;;;;;;;4.75;4.25;;;32.40;44.00;;;;;;5022803;28;20033;-47
2021/06/01 09:41:35;;;;;;;6.45;3.75;;;32.40;43.80;;;;;;5029890;28;20029;-47
2021/06/01 09:44:03;;;;;;;7.07;4.38;;;31.50;45.30;;;;;;5025101;28;20014;-46
2021/06/01 09:46:44;;;;;;;5.07;4.43;;;30.80;45.20;;;;;;5030209;28;20021;-46
2021/06/01 09:49:13;;;;;;;4.47;3.75;;;30.70;45.10;;;;;;5027883;28;20160;-47
2021/06/01 09:51:54;;;;;;;7.30;4.95;;;30.80;44.60;;;;;;5024752;28;20515;-46
2021/06/01 09:54:47;;;;;;;6.10;4.15;;;30.90;44.30;;;;;;5031538;28;20036;-49
2021/06/01 09:57:24;;;;;;;4.43;3.90;;;31.30;44.70;;;;;;5028907;28;20071;-48
2021/06/01 10:00:13;;;;;;;5.55;4.15;;;31.40;45.40;;;;;;5028761;28;20020;-48
2021/06/01 10:02:39;;;;;;;3.80;3.42;;;31.00;43.70;;;;;;5027021;28;20029;-46
2021/06/01 10:05:18;;;;;;;6.13;4.75;;;31.20;43.20;;;;;;5025383;28;20026;-45
2021/06/01 10:07:45;;;;;;;6.40;4.32;;;31.20;41.90;;;;;;5026983;28;20105;-48
2021/06/01 10:10:17;;;;;;;4.57;3.72;;;30.90;43.60;;;;;;5009755;28;20506;-48
2021/06/01 10:12:45;;;;;;;4.95;3.65;;;30.80;41.80;;;;;;5022159;28;20025;-45
2021/06/01 10:15:12;;;;;;;6.65;4.70;;;30.30;43.10;;;;;;5027114;28;20021;-45
2021/06/01 10:17:38;;;;;;;6.72;3.90;;;29.90;45.20;;;;;;5026863;28;20474;-45
2021/06/01 10:20:04;;;;;;;8.70;4.55;;;30.10;44.00;;;;;;5026191;28;20041;-47
2021/06/01 10:22:30;;;;;;;6.30;4.40;;;29.80;45.80;;;;;;5027866;28;20084;-46
2021/06/01 10:24:55;;;;;;;8.20;4.72;;;29.70;45.20;;;;;;5026477;28;20037;-46
2021/06/01 10:27:43;;;;;;;6.82;4.82;;;29.20;47.80;;;;;;5029417;28;20022;-46
2021/06/01 10:30:10;;;;;;;6.13;4.35;;;28.90;46.50;;;;;;5028120;28;20026;-46
2021/06/01 10:32:39;;;;;;;5.40;4.38;;;29.00;46.90;;;;;;5011687;28;20029;-46
2021/06/01 10:35:09;;;;;;;7.93;4.57;;;29.50;46.70;;;;;;5028852;28;20103;-48
2021/06/01 10:51:56;;;;;;;6.60;4.35;;;30.40;42.10;;;;;;5024311;28;20043;-44
2021/06/01 10:54:40;;;;;;;5.88;4.60;;;30.70;44.40;;;;;;5025433;28;20024;-44
2021/06/01 10:57:10;;;;;;;7.47;4.25;;;30.80;42.50;;;;;;5024665;28;20017;-47
2021/06/01 10:59:49;;;;;;;6.78;4.53;;;30.80;42.90;;;;;;5025508;28;20033;-47
2021/06/01 11:02:16;;;;;;;6.22;4.10;;;31.00;43.10;;;;;;5022379;28;20491;-45
2021/06/01 11:05:14;;;;;;;6.15;4.07;;;31.10;42.10;;;;;;5025118;28;20025;-45
2021/06/01 11:07:55;;;;;;;5.82;3.92;;;31.30;42.80;;;;;;5012081;28;20044;-44
2021/06/01 11:10:41;;;;;;;5.93;3.83;;;31.50;41.90;;;;;;5026412;28;20395;-45
2021/06/01 11:13:09;;;;;;;4.93;4.00;;;31.50;40.50;;;;;;5024986;28;20017;-44
2021/06/01 11:15:36;;;;;;;5.80;4.45;;;31.80;43.10;;;;;;5027484;28;20494;-45
2021/06/01 11:18:20;;;;;;;13.02;6.47;;;32.30;43.00;;;;;;5026884;28;20434;-46
2021/06/01 11:33:06;;;;;;;8.00;5.35;;;34.00;39.30;;;;;;5023772;28;20115;-48
2021/06/01 11:35:42;;;;;;;5.40;4.38;;;34.10;40.30;;;;;;5027040;28;20021;-45
2021/06/01 11:38:19;;;;;;;7.15;4.15;;;34.10;36.90;;;;;;5009741;28;20428;-48
2021/06/01 11:41:05;;;;;;;6.93;5.22;;;33.60;40.00;;;;;;5027090;28;20021;-47
2021/06/01 11:43:31;;;;;;;5.85;4.05;;;33.30;41.50;;;;;;5027462;28;20034;-45
2021/06/01 11:46:15;;;;;;;4.65;4.03;;;33.20;41.60;;;;;;5028194;28;20026;-48
2021/06/01 11:51:24;;;;;;;5.72;3.80;;;33.10;40.00;;;;;;5026076;28;20038;-48
2021/06/01 11:54:13;;;;;;;5.70;4.22;;;33.10;40.80;;;;;;5027426;28;20464;-47
2021/06/01 11:56:51;;;;;;;5.05;3.83;;;33.40;40.00;;;;;;5027586;28;20025;-46
2021/06/01 12:18:30;;;;;;;4.35;3.95;;;30.30;42.50;;;;;;5026600;28;20071;-45
2021/06/01 12:20:56;;;;;;;6.20;4.45;;;30.00;43.80;;;;;;5028018;28;20022;-45
2021/06/01 12:23:32;;;;;;;4.65;4.10;;;30.00;46.40;;;;;;5022312;28;20083;-47
2021/06/01 12:32:04;;;;;;;5.80;4.43;;;29.50;45.90;;;;;;5029402;28;20087;-46
2021/06/01 12:43:09;;;;;;;6.45;4.55;;;28.80;46.90;;;;;;5031393;28;20036;-46
2021/06/01 13:19:41;;;;;;;6.22;4.82;;;27.90;46.40;;;;;;5027753;28;20039;-48
2021/06/01 13:31:17;;;;;;;4.95;4.18;;;26.80;48.70;;;;;;5025326;28;20056;-48
2021/06/01 13:36:46;;;;;;;4.70;4.13;;;27.40;46.90;;;;;;5031323;28;20025;-48
2021/06/01 13:39:23;;;;;;;;;;;27.60;48.50;;;;;;5029104;28;20036;-46
2021/06/01 13:47:15;;;;;;;11.48;4.63;;;28.10;48.30;;;;;;5028630;28;20426;-45
2021/06/01 13:49:46;;;;;;;7.15;4.13;;;28.40;46.70;;;;;;5030109;28;20013;-45
2021/06/01 13:55:12;;;;;;;6.38;4.40;;;27.80;47.00;;;;;;5029058;28;20025;-45
2021/06/01 14:22:00;;;;;;;6.15;4.28;;;27.60;46.70;;;;;;5026880;28;20518;-45
2021/06/01 14:30:13;;;;;;;4.88;4.20;;;27.60;45.60;;;;;;5028021;28;20536;-46
2021/06/01 15:09:15;;;;;;;4.32;3.42;;;26.80;45.40;;;;;;5026311;28;20211;-47
2021/06/01 15:31:16;;;;;;;6.70;3.60;;;27.30;43.60;;;;;;5028513;28;20029;-45
2021/06/01 15:50:19;;;;;;;4.20;3.60;;;26.30;47.60;;;;;;5027036;28;20072;-45
2021/06/01 15:56:02;;;;;;;5.35;4.10;;;26.00;46.40;;;;;;5025627;28;20040;-45
2021/06/01 16:23:07;;;;;;;5.20;3.85;;;25.00;48.40;;;;;;5011970;28;20087;-47
2021/06/01 17:04:14;;;;;;;5.20;4.38;;;23.70;53.40;;;;;;4974928;28;20066;-48
2021/06/01 17:06:51;;;;;;;8.57;5.75;;;23.60;54.70;;;;;;5001630;28;20475;-46
2021/06/01 17:12:06;;;;;;;11.93;6.57;;;23.70;55.30;;;;;;5029246;28;20153;-45
2021/06/01 17:14:32;;;;;;;6.40;5.18;;;23.70;54.70;;;;;;5028223;28;20033;-46
2021/06/01 17:17:05;;;;;;;8.93;5.35;;;23.70;54.40;;;;;;5021023;28;20047;-49
2021/06/01 17:35:55;;;;;;;4.90;4.20;;;23.60;54.50;;;;;;5021953;28;20057;-46
2021/06/01 17:38:21;;;;;;;6.57;4.95;;;23.60;53.90;;;;;;5019378;28;20022;-45
2021/06/01 17:40:47;;;;;;;5.50;4.55;;;23.70;55.00;;;;;;5021057;28;20406;-47
2021/06/01 17:43:13;;;;;;;5.60;4.75;;;23.70;54.70;;;;;;5019099;28;20762;-46
2021/06/01 17:45:41;;;;;;;5.03;3.95;;;23.60;54.30;;;;;;5020668;28;20028;-46
2021/06/01 17:48:48;;;;;;;7.72;4.95;;;23.50;54.30;;;;;;5017619;28;20018;-47
2021/06/01 17:51:02;;;;;;;5.90;4.50;;;23.50;54.30;;;;;;5024074;28;20029;-44
2021/06/01 17:53:28;;;;;;;6.85;4.53;;;23.40;54.10;;;;;;5004475;28;20056;-44
2021/06/01 17:55:54;;;;;;;5.65;4.30;;;23.40;54.40;;;;;;5013476;28;20033;-44
2021/06/01 17:58:24;;;;;;;5.32;4.55;;;23.40;53.90;;;;;;5019003;28;20083;-48
2021/06/01 18:00:50;;;;;;;6.27;3.90;;;23.40;53.80;;;;;;5008342;28;20304;-46
2021/06/01 18:03:23;;;;;;;8.18;4.30;;;23.30;53.70;;;;;;5014664;28;20811;-46
2021/06/01 18:05:51;;;;;;;5.30;4.20;;;23.10;54.60;;;;;;5022349;28;20033;-44
2021/06/01 18:08:42;;;;;;;5.97;4.30;;;23.00;54.20;;;;;;5010862;28;20022;-46
2021/06/01 18:29:30;;;;;;;8.23;4.53;;;22.60;55.30;;;;;;5020213;28;20033;-46
2021/06/01 19:25:10;;;;;;;6.45;1.98;;;20.50;49.10;;;;;;5028063;28;20454;-44
2021/06/01 19:28:11;;;;;;;2.03;1.80;;;20.40;49.50;;;;;;5027348;28;20022;-45
2021/06/01 19:49:56;;;;;;;2.13;1.88;;;19.90;52.10;;;;;;5022208;28;20097;-44
2021/06/01 19:52:24;;;;;;;1.88;1.50;;;19.80;50.10;;;;;;5021167;28;20021;-45